createdAt,value
2022-09-11T00:01:07.209Z,84.09
2022-09-11T00:03:34.475Z,84.02
2022-09-11T00:06:06.383Z,83.90
2022-09-11T00:08:33.482Z,83.87
2022-09-11T00:11:17.340Z,83.71
2022-09-11T00:13:45.515Z,83.87
2022-09-11T00:16:29.125Z,84.01
2022-09-11T00:18:58.288Z,84.01
2022-09-11T00:21:25.316Z,83.90
2022-09-11T00:23:51.827Z,83.99
2022-09-11T00:26:19.439Z,83.93
2022-09-11T00:28:46.930Z,84.16
2022-09-11T00:31:19.255Z,84.23
2022-09-11T00:33:46.150Z,84.51
2022-09-11T00:36:15.804Z,84.50
2022-09-11T00:38:42.898Z,84.59
2022-09-11T00:41:22.401Z,84.69
2022-09-11T00:44:02.753Z,84.66
2022-09-11T00:46:31.909Z,84.58
2022-09-11T00:49:00.413Z,84.88
2022-09-11T00:51:30.001Z,85.01
2022-09-11T00:53:57.744Z,85.53
2022-09-11T00:56:27.722Z,85.75
2022-09-11T00:58:54.870Z,85.74
2022-09-11T01:01:21.307Z,86.13
2022-09-11T01:03:47.918Z,86.18
2022-09-11T01:06:14.584Z,86.36
2022-09-11T01:08:40.966Z,86.19
2022-09-11T01:11:19.486Z,86.33
2022-09-11T01:14:04.189Z,86.48
2022-09-11T01:16:33.607Z,87.00
2022-09-11T01:19:06.637Z,87.46
2022-09-11T01:21:52.224Z,87.67
2022-09-11T01:24:28.487Z,87.58
2022-09-11T01:27:09.119Z,87.68
2022-09-11T01:29:50.634Z,87.59
2022-09-11T01:32:29.119Z,87.75
2022-09-11T01:35:02.780Z,88.29
2022-09-11T01:37:40.925Z,88.62
2022-09-11T01:40:15.229Z,88.79
2022-09-11T01:42:43.387Z,88.72
2022-09-11T01:45:10.486Z,88.71
2022-09-11T01:47:37.770Z,88.86
2022-09-11T01:50:09.358Z,89.37
2022-09-11T01:52:41.230Z,89.61
2022-09-11T01:55:15.747Z,89.52
2022-09-11T01:57:49.910Z,89.49
2022-09-11T02:00:16.626Z,89.84
2022-09-11T02:02:46.976Z,89.78
2022-09-11T02:05:16.776Z,89.99
2022-09-11T02:07:47.142Z,90.08
2022-09-11T02:10:18.424Z,90.10
2022-09-11T02:12:51.680Z,90.19
2022-09-11T02:15:18.809Z,90.04
2022-09-11T02:18:00.015Z,89.87
2022-09-11T02:20:26.415Z,89.78
2022-09-11T02:22:53.116Z,89.83
2022-09-11T02:25:19.555Z,89.59
2022-09-11T02:27:46.015Z,89.47
2022-09-11T02:30:14.046Z,89.39
2022-09-11T02:32:42.093Z,89.12
2022-09-11T02:35:09.250Z,89.19
2022-09-11T02:37:52.360Z,89.27
2022-09-11T02:40:31.959Z,89.25
2022-09-11T02:43:33.477Z,89.38
2022-09-11T02:46:17.794Z,89.64
2022-09-11T02:49:21.736Z,89.79
2022-09-11T02:52:01.057Z,90.03
2022-09-11T02:54:49.302Z,90.34
2022-09-11T02:57:29.103Z,91.61
2022-09-11T03:00:00.811Z,92.40
2022-09-11T03:02:29.423Z,93.90
2022-09-11T03:04:56.677Z,95.12
2022-09-11T03:07:25.252Z,95.40
2022-09-11T03:09:52.383Z,97.12
2022-09-11T03:12:19.172Z,97.54
2022-09-11T03:14:45.578Z,98.10
2022-09-11T03:17:11.958Z,97.96
2022-09-11T03:19:38.347Z,98.07
2022-09-11T03:22:04.806Z,98.69
2022-09-11T03:24:31.199Z,98.29
2022-09-11T03:26:57.606Z,98.78
2022-09-11T03:29:24.015Z,98.54
2022-09-11T03:31:51.373Z,98.52
2022-09-11T03:34:17.975Z,98.83
2022-09-11T03:36:44.390Z,99.12
2022-09-11T03:39:10.779Z,99.34
2022-09-11T03:41:37.330Z,99.81
2022-09-11T03:44:03.850Z,100.00
2022-09-11T03:46:30.395Z,100.00
2022-09-11T03:48:56.803Z,100.00
2022-09-11T03:51:23.186Z,100.00
2022-09-11T03:53:49.583Z,100.00
2022-09-11T03:56:16.017Z,100.00
2022-09-11T03:58:43.186Z,100.00
2022-09-11T04:01:15.480Z,100.00
2022-09-11T04:03:42.428Z,100.00
2022-09-11T04:06:10.026Z,100.00
2022-09-11T04:08:36.964Z,100.00
2022-09-11T04:11:05.081Z,100.00
2022-09-11T04:13:33.875Z,100.00
2022-09-11T04:16:03.021Z,100.00
2022-09-11T04:18:30.626Z,100.00
2022-09-11T04:20:57.114Z,100.00
2022-09-11T04:23:23.511Z,100.00
2022-09-11T04:25:49.922Z,100.00
2022-09-11T04:28:16.440Z,100.00
2022-09-11T04:30:42.821Z,100.00
2022-09-11T04:33:09.238Z,100.00
2022-09-11T04:35:40.017Z,100.00
2022-09-11T04:38:07.588Z,100.00
2022-09-11T04:40:34.812Z,100.00
2022-09-11T04:43:02.225Z,100.00
2022-09-11T04:45:33.259Z,100.00
2022-09-11T04:48:00.768Z,100.00
2022-09-11T04:50:28.609Z,100.00
2022-09-11T04:52:55.325Z,100.00
2022-09-11T04:55:21.805Z,100.00
2022-09-11T04:57:48.192Z,100.00
2022-09-11T05:00:15.115Z,100.00
2022-09-11T05:02:41.562Z,100.00
2022-09-11T05:05:09.210Z,100.00
2022-09-11T05:07:36.217Z,100.00
2022-09-11T05:10:03.016Z,100.00
2022-09-11T05:12:30.053Z,100.00
2022-09-11T05:14:56.731Z,100.00
2022-09-11T05:17:23.179Z,100.00
2022-09-11T05:19:49.583Z,100.00
2022-09-11T05:22:16.019Z,100.00
2022-09-11T05:24:42.409Z,100.00
2022-09-11T05:27:09.685Z,100.00
2022-09-11T05:29:36.105Z,100.00
2022-09-11T05:32:03.508Z,100.00
2022-09-11T05:34:30.029Z,100.00
2022-09-11T05:36:57.380Z,100.00
2022-09-11T05:39:24.375Z,100.00
2022-09-11T05:41:51.770Z,100.00
2022-09-11T05:44:18.659Z,100.00
2022-09-11T05:46:45.089Z,100.00
2022-09-11T05:49:11.694Z,100.00
2022-09-11T05:51:39.799Z,100.00
2022-09-11T05:54:06.203Z,100.00
2022-09-11T05:56:32.626Z,100.00
2022-09-11T05:58:59.017Z,100.00
2022-09-11T06:01:26.982Z,100.00
2022-09-11T06:03:54.073Z,100.00
2022-09-11T06:06:22.327Z,100.00
2022-09-11T06:08:49.969Z,100.00
2022-09-11T06:11:17.818Z,100.00
2022-09-11T06:13:46.364Z,100.00
2022-09-11T06:16:23.216Z,100.00
2022-09-11T06:18:51.101Z,100.00
2022-09-11T06:21:20.463Z,100.00
2022-09-11T06:23:48.252Z,100.00
2022-09-11T06:26:16.579Z,100.00
2022-09-11T06:28:43.397Z,100.00
2022-09-11T06:31:12.358Z,100.00
2022-09-11T06:33:40.492Z,100.00
2022-09-11T06:36:10.561Z,100.00
2022-09-11T06:38:38.225Z,100.00
2022-09-11T06:41:06.817Z,100.00
2022-09-11T06:43:33.320Z,100.00
2022-09-11T06:46:06.994Z,100.00
2022-09-11T06:48:33.793Z,100.00
2022-09-11T06:51:04.100Z,100.00
2022-09-11T06:53:30.507Z,100.00
2022-09-11T06:56:01.107Z,100.00
2022-09-11T06:58:29.187Z,100.00
2022-09-11T07:01:22.661Z,100.00
2022-09-11T07:03:50.775Z,100.00
2022-09-11T07:06:25.580Z,100.00
2022-09-11T07:09:02.442Z,100.00
2022-09-11T07:11:34.402Z,100.00
2022-09-11T07:14:02.625Z,100.00
2022-09-11T07:16:29.102Z,100.00
2022-09-11T07:18:55.584Z,100.00
2022-09-11T07:21:23.237Z,100.00
2022-09-11T07:23:51.625Z,100.00
2022-09-11T07:26:18.581Z,100.00
2022-09-11T07:28:44.965Z,100.00
2022-09-11T07:31:17.490Z,100.00
2022-09-11T07:33:50.874Z,100.00
2022-09-11T07:36:22.102Z,100.00
2022-09-11T07:38:49.714Z,100.00
2022-09-11T07:41:19.285Z,100.00
2022-09-11T07:43:45.699Z,100.00
2022-09-11T07:46:12.887Z,100.00
2022-09-11T07:48:40.734Z,100.00
2022-09-11T07:51:08.885Z,100.00
2022-09-11T07:53:46.257Z,100.00
2022-09-11T07:56:18.496Z,100.00
2022-09-11T07:58:45.406Z,100.00
2022-09-11T08:01:19.806Z,100.00
2022-09-11T08:03:46.714Z,99.64
2022-09-11T08:06:21.377Z,98.52
2022-09-11T08:08:52.362Z,97.99
2022-09-11T08:11:19.702Z,97.62
2022-09-11T08:13:53.496Z,97.39
2022-09-11T08:16:21.442Z,97.14
2022-09-11T08:18:48.169Z,95.52
2022-09-11T08:21:15.316Z,95.20
2022-09-11T08:23:43.374Z,94.65
2022-09-11T08:26:12.797Z,94.68
2022-09-11T08:28:40.100Z,93.97
2022-09-11T08:31:06.939Z,94.20
2022-09-11T08:33:33.551Z,92.83
2022-09-11T08:36:02.109Z,92.24
2022-09-11T08:38:28.929Z,90.83
2022-09-11T08:40:57.444Z,90.89
2022-09-11T08:43:27.560Z,89.90
2022-09-11T08:45:58.894Z,89.44
2022-09-11T08:48:31.760Z,88.81
2022-09-11T08:50:58.310Z,89.10
2022-09-11T08:53:33.312Z,87.22
2022-09-11T08:56:03.365Z,86.97
2022-09-11T08:59:06.932Z,87.11
2022-09-11T09:01:47.123Z,86.09
2022-09-11T09:04:26.128Z,85.41
2022-09-11T09:07:11.186Z,85.46
2022-09-11T09:09:56.387Z,84.63
2022-09-11T09:12:32.345Z,84.77
2022-09-11T09:15:17.087Z,84.41
2022-09-11T09:17:48.011Z,84.18
2022-09-11T09:20:30.112Z,83.51
2022-09-11T09:23:00.696Z,82.52
2022-09-11T09:25:27.697Z,83.04
2022-09-11T09:28:00.290Z,81.91
2022-09-11T09:30:28.536Z,82.30
2022-09-11T09:33:18.411Z,82.20
2022-09-11T09:35:45.162Z,81.08
2022-09-11T09:38:13.993Z,80.08
2022-09-11T09:40:52.532Z,78.41
2022-09-11T09:43:32.049Z,76.82
2022-09-11T09:46:11.416Z,71.78
2022-09-11T09:48:39.291Z,72.42
2022-09-11T09:51:06.097Z,72.21
2022-09-11T09:53:37.659Z,73.85
2022-09-11T09:56:05.455Z,73.84
2022-09-11T09:58:34.748Z,73.77
2022-09-11T10:01:01.284Z,71.91
2022-09-11T10:03:27.870Z,72.29
2022-09-11T10:05:55.951Z,71.98
2022-09-11T10:08:29.722Z,72.18
2022-09-11T10:11:07.362Z,71.56
2022-09-11T10:13:37.362Z,70.77
2022-09-11T10:16:05.755Z,71.29
2022-09-11T10:18:37.558Z,69.48
2022-09-11T10:21:13.040Z,70.11
2022-09-11T10:23:52.976Z,70.54
2022-09-11T10:26:28.210Z,70.31
2022-09-11T10:28:58.633Z,70.15
2022-09-11T10:31:26.228Z,69.31
2022-09-11T10:33:55.514Z,69.26
2022-09-11T10:36:27.436Z,69.00
2022-09-11T10:38:54.573Z,69.16
2022-09-11T10:41:22.977Z,69.12
2022-09-11T10:44:00.486Z,68.88
2022-09-11T10:46:39.847Z,68.38
2022-09-11T10:49:06.176Z,67.46
2022-09-11T10:51:35.183Z,67.29
2022-09-11T10:54:22.712Z,67.40
2022-09-11T10:56:54.995Z,68.25
2022-09-11T10:59:24.406Z,68.10
2022-09-11T11:01:51.332Z,67.87
2022-09-11T11:04:17.832Z,68.16
2022-09-11T11:06:56.781Z,66.71
2022-09-11T11:09:41.901Z,65.61
2022-09-11T11:12:24.466Z,65.68
2022-09-11T11:15:18.495Z,65.42
2022-09-11T11:18:11.825Z,64.03
2022-09-11T11:20:51.276Z,63.56
2022-09-11T11:23:33.297Z,63.53
2022-09-11T11:26:22.228Z,65.00
2022-09-11T11:29:20.567Z,65.97
2022-09-11T11:32:08.464Z,65.57
2022-09-11T11:35:04.606Z,64.37
2022-09-11T11:37:34.604Z,64.01
2022-09-11T11:40:09.092Z,64.05
2022-09-11T11:42:38.833Z,62.31
2022-09-11T11:45:10.038Z,61.94
2022-09-11T11:47:38.480Z,62.67
2022-09-11T11:50:08.637Z,62.92
2022-09-11T11:52:42.593Z,63.72
2022-09-11T11:55:21.011Z,61.89
2022-09-11T11:58:13.027Z,61.22
2022-09-11T12:00:44.277Z,60.47
2022-09-11T12:03:34.403Z,62.32
2022-09-11T12:06:01.012Z,60.82
2022-09-11T12:08:27.581Z,61.01
2022-09-11T12:10:57.498Z,61.08
2022-09-11T12:13:32.498Z,60.68
2022-09-11T12:16:32.682Z,60.11
2022-09-11T12:19:15.252Z,60.15
2022-09-11T12:22:02.521Z,59.82
2022-09-11T12:24:54.924Z,59.86
2022-09-11T12:27:31.869Z,60.14
2022-09-11T12:30:08.541Z,57.49
2022-09-11T12:32:43.924Z,57.41
2022-09-11T12:35:29.031Z,57.31
2022-09-11T12:38:08.872Z,58.09
2022-09-11T12:40:40.342Z,58.13
2022-09-11T12:43:18.776Z,58.84
2022-09-11T12:45:48.161Z,58.88
2022-09-11T12:48:16.726Z,58.43
2022-09-11T12:51:19.302Z,59.23
2022-09-11T12:53:50.290Z,60.58
2022-09-11T12:56:19.389Z,59.66
2022-09-11T12:58:49.665Z,59.68
2022-09-11T13:01:21.436Z,58.30
2022-09-11T13:03:53.359Z,57.56
2022-09-11T13:06:20.332Z,58.58
2022-09-11T13:08:50.410Z,57.91
2022-09-11T13:11:42.755Z,57.63
2022-09-11T13:14:27.720Z,57.51
2022-09-11T13:16:58.383Z,57.40
2022-09-11T13:19:33.974Z,57.11
2022-09-11T13:22:01.765Z,56.89
2022-09-11T13:24:30.285Z,55.51
2022-09-11T13:27:21.054Z,55.65
2022-09-11T13:29:48.216Z,55.88
2022-09-11T13:32:15.345Z,56.37
2022-09-11T13:34:47.419Z,56.79
2022-09-11T13:37:21.301Z,55.76
2022-09-11T13:39:47.800Z,55.69
2022-09-11T13:42:18.066Z,54.16
2022-09-11T13:44:47.028Z,54.11
2022-09-11T13:47:20.140Z,54.49
2022-09-11T13:49:46.865Z,54.09
2022-09-11T13:52:14.037Z,54.50
2022-09-11T13:54:47.592Z,54.79
2022-09-11T13:57:25.268Z,53.15
2022-09-11T13:59:57.073Z,54.34
2022-09-11T14:02:37.171Z,55.65
2022-09-11T14:05:22.655Z,56.17
2022-09-11T14:08:04.787Z,55.46
2022-09-11T14:10:47.008Z,56.29
2022-09-11T14:13:42.611Z,56.48
2022-09-11T14:16:15.735Z,55.81
2022-09-11T14:18:53.774Z,57.64
2022-09-11T14:21:23.282Z,58.42
2022-09-11T14:23:54.918Z,57.70
2022-09-11T14:26:24.110Z,57.38
2022-09-11T14:28:58.148Z,57.43
2022-09-11T14:31:35.867Z,58.99
2022-09-11T14:34:10.965Z,58.97
2022-09-11T14:36:52.718Z,59.35
2022-09-11T14:39:27.460Z,59.71
2022-09-11T14:41:55.571Z,59.36
2022-09-11T14:44:22.232Z,57.46
2022-09-11T14:46:48.801Z,57.88
2022-09-11T14:49:15.544Z,59.53
2022-09-11T14:51:42.662Z,60.28
2022-09-11T14:54:15.726Z,60.71
2022-09-11T14:56:42.561Z,61.48
2022-09-11T14:59:09.301Z,61.73
2022-09-11T15:01:36.493Z,61.56
2022-09-11T15:04:03.152Z,61.28
2022-09-11T15:06:29.632Z,59.79
2022-09-11T15:08:56.284Z,59.66
2022-09-11T15:11:22.662Z,59.79
2022-09-11T15:14:13.486Z,59.39
2022-09-11T15:16:35.527Z,59.24
2022-09-11T15:19:01.913Z,58.61
2022-09-11T15:21:28.451Z,59.06
2022-09-11T15:23:55.161Z,59.19
2022-09-11T15:26:21.541Z,59.45
2022-09-11T15:28:50.842Z,58.24
2022-09-11T15:31:21.177Z,57.92
2022-09-11T15:33:51.643Z,57.56
2022-09-11T15:36:19.436Z,57.04
2022-09-11T15:38:54.013Z,55.97
2022-09-11T15:41:22.294Z,55.64
2022-09-11T15:43:50.542Z,55.21
2022-09-11T15:46:21.139Z,55.96
2022-09-11T15:48:48.860Z,56.05
2022-09-11T15:51:18.363Z,56.49
2022-09-11T15:53:44.929Z,56.58
2022-09-11T15:56:15.158Z,57.18
2022-09-11T15:58:44.385Z,56.80
2022-09-11T16:01:24.376Z,56.97
2022-09-11T16:03:56.630Z,56.71
2022-09-11T16:06:25.098Z,56.47
2022-09-11T16:08:53.859Z,57.76
2022-09-11T16:11:21.163Z,57.63
2022-09-11T16:13:52.061Z,57.38
2022-09-11T16:16:19.281Z,57.05
2022-09-11T16:18:46.100Z,58.30
2022-09-11T16:21:14.243Z,58.33
2022-09-11T16:23:41.050Z,57.84
2022-09-11T16:26:18.528Z,58.25
2022-09-11T16:28:46.002Z,58.67
2022-09-11T16:31:12.489Z,59.14
2022-09-11T16:33:40.982Z,59.21
2022-09-11T16:36:08.797Z,59.35
2022-09-11T16:38:37.804Z,59.04
2022-09-11T16:41:12.575Z,58.23
2022-09-11T16:43:40.627Z,57.53
2022-09-11T16:46:08.646Z,57.79
2022-09-11T16:48:37.007Z,55.26
2022-09-11T16:51:03.767Z,51.11
2022-09-11T16:53:34.199Z,47.69
2022-09-11T16:56:04.557Z,46.22
2022-09-11T16:58:30.988Z,45.16
2022-09-11T17:00:57.397Z,45.85
2022-09-11T17:03:23.893Z,47.65
2022-09-11T17:05:51.727Z,49.67
2022-09-11T17:08:18.482Z,50.55
2022-09-11T17:10:47.010Z,51.69
2022-09-11T17:13:13.399Z,52.94
2022-09-11T17:15:42.189Z,53.93
2022-09-11T17:18:11.616Z,55.29
2022-09-11T17:20:38.682Z,55.94
2022-09-11T17:23:06.614Z,57.17
2022-09-11T17:25:34.999Z,57.42
2022-09-11T17:28:02.658Z,58.17
2022-09-11T17:30:29.239Z,58.60
2022-09-11T17:32:57.308Z,59.16
2022-09-11T17:35:23.961Z,59.55
2022-09-11T17:37:51.023Z,60.24
2022-09-11T17:40:18.324Z,60.52
2022-09-11T17:42:46.515Z,61.34
2022-09-11T17:45:12.926Z,61.91
2022-09-11T17:47:40.854Z,62.39
2022-09-11T17:50:07.624Z,62.62
2022-09-11T17:52:34.938Z,62.54
2022-09-11T17:55:01.335Z,63.34
2022-09-11T17:57:28.303Z,63.52
2022-09-11T17:59:56.399Z,63.46
2022-09-11T18:02:23.543Z,64.20
2022-09-11T18:04:49.986Z,64.53
2022-09-11T18:07:17.098Z,64.40
2022-09-11T18:09:43.649Z,64.46
2022-09-11T18:12:10.166Z,64.69
2022-09-11T18:14:37.852Z,65.08
2022-09-11T18:17:04.329Z,65.50
2022-09-11T18:19:30.812Z,65.99
2022-09-11T18:21:57.649Z,66.18
2022-09-11T18:24:24.148Z,66.57
2022-09-11T18:26:53.531Z,67.18
2022-09-11T18:29:22.005Z,67.03
2022-09-11T18:31:51.764Z,67.37
2022-09-11T18:34:20.544Z,67.45
2022-09-11T18:36:47.443Z,67.70
2022-09-11T18:39:18.584Z,67.91
2022-09-11T18:41:46.215Z,67.60
2022-09-11T18:44:19.265Z,67.85
2022-09-11T18:46:46.238Z,67.89
2022-09-11T18:49:14.073Z,67.95
2022-09-11T18:51:42.117Z,68.23
2022-09-11T18:54:17.324Z,68.26
2022-09-11T18:56:44.456Z,68.10
2022-09-11T18:59:11.922Z,68.01
2022-09-11T19:01:39.738Z,68.08
2022-09-11T19:04:08.076Z,67.92
2022-09-11T19:06:34.531Z,68.13
2022-09-11T19:09:01.707Z,68.16
2022-09-11T19:11:29.825Z,67.87
2022-09-11T19:14:01.881Z,67.89
2022-09-11T19:16:28.319Z,68.01
2022-09-11T19:18:55.093Z,68.13
2022-09-11T19:21:23.127Z,68.01
2022-09-11T19:23:53.526Z,68.06
2022-09-11T19:26:25.333Z,68.23
2022-09-11T19:28:52.043Z,68.44
2022-09-11T19:31:21.397Z,68.35
2022-09-11T19:33:48.195Z,68.35
2022-09-11T19:36:20.567Z,68.10
2022-09-11T19:38:49.543Z,68.35
2022-09-11T19:41:18.621Z,67.85
2022-09-11T19:43:45.610Z,67.96
2022-09-11T19:46:14.648Z,67.82
2022-09-11T19:48:41.550Z,67.72
2022-09-11T19:51:09.746Z,67.69
2022-09-11T19:53:37.110Z,67.95
2022-09-11T19:56:03.625Z,67.81
2022-09-11T19:58:30.465Z,68.03
2022-09-11T20:00:57.587Z,68.14
2022-09-11T20:03:24.497Z,68.21
2022-09-11T20:05:53.488Z,68.38
2022-09-11T20:08:20.445Z,68.47
2022-09-11T20:10:47.086Z,68.31
2022-09-11T20:13:13.472Z,68.54
2022-09-11T20:15:40.065Z,68.67
2022-09-11T20:18:07.762Z,68.66
2022-09-11T20:20:35.911Z,69.11
2022-09-11T20:23:02.455Z,69.32
2022-09-11T20:25:28.864Z,69.49
2022-09-11T20:27:55.275Z,69.56
2022-09-11T20:30:22.984Z,69.67
2022-09-11T20:32:49.383Z,69.65
2022-09-11T20:35:15.880Z,70.01
2022-09-11T20:37:42.273Z,70.07
2022-09-11T20:40:09.785Z,69.84
2022-09-11T20:42:36.213Z,69.83
2022-09-11T20:45:02.812Z,69.94
2022-09-11T20:47:29.230Z,69.99
2022-09-11T20:49:55.634Z,70.06
2022-09-11T20:52:22.051Z,70.08
2022-09-11T20:54:49.071Z,70.26
2022-09-11T20:57:15.662Z,70.20
2022-09-11T20:59:43.348Z,70.24
2022-09-11T21:02:11.008Z,70.30
2022-09-11T21:04:37.756Z,70.58
2022-09-11T21:07:04.198Z,70.48
2022-09-11T21:09:30.971Z,70.34
2022-09-11T21:11:57.494Z,70.40
2022-09-11T21:14:23.913Z,70.20
2022-09-11T21:16:52.338Z,70.56
2022-09-11T21:19:18.734Z,70.44
2022-09-11T21:21:45.165Z,70.45
2022-09-11T21:24:12.975Z,70.41
2022-09-11T21:26:40.210Z,70.20
2022-09-11T21:29:08.585Z,70.30
2022-09-11T21:31:35.614Z,70.42
2022-09-11T21:34:02.148Z,70.47
2022-09-11T21:36:28.542Z,70.61
2022-09-11T21:38:54.929Z,70.70
2022-09-11T21:41:21.426Z,70.81
2022-09-11T21:43:47.869Z,70.74
2022-09-11T21:46:14.327Z,70.41
2022-09-11T21:48:41.473Z,70.59
2022-09-11T21:51:14.275Z,70.60
2022-09-11T21:53:42.734Z,70.30
2022-09-11T21:56:20.468Z,70.66
2022-09-11T21:58:48.314Z,70.55
2022-09-11T22:01:15.227Z,71.03
2022-09-11T22:03:41.914Z,71.61
2022-09-11T22:06:10.211Z,71.96
2022-09-11T22:08:41.159Z,71.89
2022-09-11T22:11:07.565Z,71.48
2022-09-11T22:13:35.397Z,71.65
2022-09-11T22:16:05.771Z,71.76
2022-09-11T22:18:32.216Z,72.58
2022-09-11T22:21:01.160Z,72.99
2022-09-11T22:23:29.142Z,73.28
2022-09-11T22:26:07.368Z,73.22
2022-09-11T22:28:34.180Z,73.22
2022-09-11T22:31:00.648Z,73.21
2022-09-11T22:33:27.085Z,73.04
2022-09-11T22:35:53.496Z,72.74
2022-09-11T22:38:19.889Z,72.65
2022-09-11T22:40:52.293Z,72.55
2022-09-11T22:43:18.705Z,72.61
2022-09-11T22:45:52.205Z,72.58
2022-09-11T22:48:18.762Z,72.43
2022-09-11T22:50:45.228Z,72.22
2022-09-11T22:53:11.714Z,72.37
2022-09-11T22:55:42.851Z,72.53
2022-09-11T22:58:09.251Z,72.73
2022-09-11T23:00:35.661Z,72.57
2022-09-11T23:03:02.156Z,73.32
2022-09-11T23:05:47.015Z,73.77
2022-09-11T23:08:13.409Z,74.22
2022-09-11T23:10:43.869Z,74.19
2022-09-11T23:13:10.379Z,74.59
2022-09-11T23:15:36.771Z,74.53
2022-09-11T23:18:03.724Z,74.19
2022-09-11T23:20:30.514Z,74.29
2022-09-11T23:22:57.207Z,74.14
2022-09-11T23:25:25.054Z,74.28
2022-09-11T23:27:53.504Z,74.13
2022-09-11T23:30:20.254Z,74.14
2022-09-11T23:32:46.741Z,74.53
2022-09-11T23:35:13.129Z,74.74
2022-09-11T23:37:43.502Z,74.77
2022-09-11T23:40:11.697Z,75.27
2022-09-11T23:42:38.122Z,75.43
2022-09-11T23:45:04.668Z,75.43
2022-09-11T23:47:31.061Z,75.31
2022-09-11T23:49:57.746Z,75.03
2022-09-11T23:52:24.157Z,74.78
2022-09-11T23:54:50.634Z,75.20
2022-09-11T23:57:17.067Z,75.46
2022-09-11T23:59:43.448Z,75.65
